Time;durP1;ratioP1;P1;durP2;ratioP2;P2;SDS_P1;SDS_P2;PMS_P1;PMS_P2;Temp;Humidity;BMP_temperature;BMP_pressure;BME280_temperature;BME280_humidity;BME280_pressure;Samples;Min_cycle;Max_cycle;Signal;HPM_P1;HPM_P2
2022/11/28 00:01:32;;;;;;;18.03;16.83;;;6.50;99.90;;;;;;5050827;28;20451;-75
2022/11/28 00:03:59;;;;;;;19.17;17.83;;;6.50;99.90;;;;;;5050768;28;20490;-76
2022/11/28 00:06:28;;;;;;;19.50;17.90;;;6.50;99.90;;;;;;5050471;28;20527;-75
2022/11/28 00:08:57;;;;;;;19.10;18.00;;;6.50;99.90;;;;;;5050146;28;20452;-75
2022/11/28 00:11:24;;;;;;;19.27;17.90;;;6.60;99.90;;;;;;5050410;28;20452;-76
2022/11/28 00:13:51;;;;;;;18.67;17.57;;;6.60;99.90;;;;;;5050517;28;20440;-76
2022/11/28 00:16:20;;;;;;;20.00;18.60;;;6.60;99.90;;;;;;5050549;28;20458;-76
2022/11/28 00:18:47;;;;;;;19.50;18.30;;;6.60;99.90;;;;;;5050509;28;20868;-76
2022/11/28 00:21:15;;;;;;;18.60;17.33;;;6.60;99.90;;;;;;5050522;28;20444;-76
2022/11/28 00:23:45;;;;;;;19.10;17.90;;;6.60;99.90;;;;;;5050194;28;21021;-76
2022/11/28 00:26:15;;;;;;;20.97;19.47;;;6.60;99.90;;;;;;5050367;28;20463;-76
2022/11/28 00:28:43;;;;;;;18.90;17.67;;;6.70;99.90;;;;;;5050022;28;21021;-76
2022/11/28 00:31:13;;;;;;;21.00;19.57;;;6.80;99.90;;;;;;5050049;28;20444;-76
2022/11/28 00:33:39;;;;;;;19.53;18.23;;;6.90;99.90;;;;;;5050146;28;20451;-76
2022/11/28 00:36:07;;;;;;;20.13;18.80;;;6.80;99.90;;;;;;5050130;28;20448;-76
2022/11/28 00:38:33;;;;;;;19.40;18.10;;;6.80;99.90;;;;;;5049986;28;20452;-76
2022/11/28 00:41:04;;;;;;;20.03;18.60;;;6.90;99.90;;;;;;5044625;28;20950;-75
2022/11/28 00:43:31;;;;;;;17.93;16.80;;;6.80;99.90;;;;;;5030146;28;20492;-76
2022/11/28 00:45:58;;;;;;;20.17;18.70;;;6.90;99.90;;;;;;5030260;28;20447;-75
2022/11/28 00:48:25;;;;;;;19.40;17.90;;;6.90;99.90;;;;;;5029965;28;20511;-76
2022/11/28 00:50:53;;;;;;;18.60;17.10;;;6.90;99.90;;;;;;5030103;28;20445;-74
2022/11/28 00:53:20;;;;;;;18.37;17.17;;;7.00;99.90;;;;;;5029750;28;20441;-74
2022/11/28 00:55:46;;;;;;;19.70;18.30;;;7.00;99.90;;;;;;5030102;28;20455;-76
2022/11/28 00:58:14;;;;;;;18.83;17.57;;;7.00;99.90;;;;;;5030254;28;20453;-74
2022/11/28 01:00:41;;;;;;;18.20;16.90;;;7.00;99.90;;;;;;5030196;28;20959;-74
2022/11/28 01:03:08;;;;;;;19.07;17.87;;;6.90;99.90;;;;;;5029750;28;20476;-76
2022/11/28 01:05:40;;;;;;;19.77;18.40;;;6.80;99.90;;;;;;5029772;28;20453;-76
2022/11/28 01:08:07;;;;;;;18.90;17.50;;;6.70;99.90;;;;;;5029887;28;20745;-75
2022/11/28 01:10:34;;;;;;;19.53;18.00;;;6.60;99.90;;;;;;5029722;28;20961;-76
2022/11/28 01:13:00;;;;;;;19.80;18.40;;;6.60;99.90;;;;;;5029862;28;20448;-74
2022/11/28 01:15:28;;;;;;;18.80;17.60;;;6.70;99.90;;;;;;5029886;28;20451;-74
2022/11/28 01:17:55;;;;;;;17.93;16.63;;;6.70;99.90;;;;;;5029644;28;20969;-74
2022/11/28 01:20:22;;;;;;;17.53;16.50;;;6.60;99.90;;;;;;5032549;28;20471;-75
2022/11/28 01:22:49;;;;;;;18.50;17.00;;;6.60;99.90;;;;;;5033723;28;20982;-75
2022/11/28 01:25:15;;;;;;;18.07;16.87;;;6.50;99.90;;;;;;5033770;28;20441;-75
2022/11/28 01:27:42;;;;;;;19.50;18.20;;;6.40;99.90;;;;;;5033188;28;20473;-75
2022/11/28 02:50:12;;;;;;;19.70;18.30;;;6.10;99.90;;;;;;5998523;23;20398;-71
2022/11/28 02:52:42;;;;;;;19.43;17.97;;;6.10;99.90;;;;;;5028842;28;21286;-73
2022/11/28 02:55:09;;;;;;;20.13;18.63;;;6.10;99.90;;;;;;5030257;28;21026;-71
2022/11/28 02:57:38;;;;;;;18.97;17.57;;;6.10;99.90;;;;;;5030183;28;20449;-71
2022/11/28 03:00:24;;;;;;;19.23;17.90;;;6.20;99.90;;;;;;5030111;28;20964;-73
2022/11/28 03:03:03;;;;;;;19.47;18.07;;;6.10;99.90;;;;;;5030308;28;20456;-72
2022/11/28 03:05:35;;;;;;;19.17;17.90;;;6.10;99.90;;;;;;5028550;28;20448;-73
2022/11/28 03:08:12;;;;;;;18.83;17.40;;;6.10;99.90;;;;;;5030709;28;20804;-74
2022/11/28 03:10:49;;;;;;;19.23;17.97;;;6.10;99.90;;;;;;5030207;28;20827;-73
2022/11/28 03:13:26;;;;;;;19.07;17.77;;;6.00;99.90;;;;;;5030478;28;20450;-73
2022/11/28 03:16:01;;;;;;;19.40;17.80;;;6.00;99.90;;;;;;5030009;28;20640;-72
2022/11/28 03:18:33;;;;;;;19.67;18.07;;;6.00;99.90;;;;;;5030131;28;20451;-74
2022/11/28 03:21:09;;;;;;;18.73;17.47;;;6.00;99.90;;;;;;5030015;28;20780;-73
2022/11/28 03:23:42;;;;;;;19.83;18.27;;;6.00;99.90;;;;;;5029738;28;20480;-73
2022/11/28 03:26:13;;;;;;;19.97;18.57;;;6.00;99.90;;;;;;5029816;28;20790;-73
2022/11/28 03:28:45;;;;;;;19.57;17.90;;;6.00;99.90;;;;;;5029806;28;20463;-73
2022/11/28 03:31:16;;;;;;;19.33;18.03;;;6.00;99.90;;;;;;5029792;28;20440;-72
2022/11/28 03:33:49;;;;;;;18.80;17.50;;;6.10;99.90;;;;;;5029770;28;20452;-72
2022/11/28 03:36:22;;;;;;;17.93;16.83;;;6.00;99.90;;;;;;5029872;28;20452;-73
2022/11/28 03:38:53;;;;;;;18.87;17.50;;;6.00;99.90;;;;;;5029711;28;20456;-72
2022/11/28 03:41:24;;;;;;;19.60;18.10;;;6.00;99.90;;;;;;5029140;28;20452;-72
2022/11/28 03:43:55;;;;;;;19.27;18.00;;;6.10;99.90;;;;;;5029280;28;20507;-73
2022/11/28 03:46:26;;;;;;;18.93;17.73;;;6.10;99.90;;;;;;5029645;28;20471;-73
2022/11/28 03:48:58;;;;;;;19.77;18.37;;;6.20;99.90;;;;;;5029621;28;21017;-73
2022/11/28 03:51:32;;;;;;;17.77;16.57;;;6.30;99.90;;;;;;5029100;28;20530;-72
2022/11/28 03:54:04;;;;;;;19.17;17.87;;;6.30;99.90;;;;;;5029796;28;20467;-73
2022/11/28 03:56:39;;;;;;;19.40;18.07;;;6.20;99.90;;;;;;5029824;28;20829;-71
2022/11/28 03:59:12;;;;;;;19.17;17.60;;;6.20;99.90;;;;;;5029252;28;20933;-71
2022/11/28 04:01:51;;;;;;;19.03;17.83;;;6.20;99.90;;;;;;5029294;28;20448;-73
2022/11/28 04:04:27;;;;;;;17.90;16.70;;;6.10;99.90;;;;;;5029525;28;20484;-71
2022/11/28 04:06:59;;;;;;;19.33;18.07;;;6.10;99.90;;;;;;5029479;28;20871;-72
2022/11/28 04:09:39;;;;;;;20.03;18.73;;;6.10;99.90;;;;;;5029183;28;20449;-71
2022/11/28 04:12:14;;;;;;;21.53;19.63;;;6.00;99.90;;;;;;5029359;28;20449;-72
2022/11/28 04:14:46;;;;;;;19.30;17.93;;;6.00;99.90;;;;;;5029537;28;20454;-71
2022/11/28 04:17:19;;;;;;;19.20;18.10;;;6.10;99.90;;;;;;5029622;28;20445;-71
2022/11/28 04:19:50;;;;;;;19.83;18.57;;;6.00;99.90;;;;;;5029733;28;20532;-73
2022/11/28 04:22:21;;;;;;;20.60;19.03;;;6.00;99.90;;;;;;5029613;28;20445;-73
2022/11/28 04:24:52;;;;;;;19.23;18.03;;;6.00;99.90;;;;;;5029253;28;20489;-72
2022/11/28 04:27:23;;;;;;;19.90;18.60;;;5.90;99.90;;;;;;5029244;28;20460;-73
2022/11/28 04:29:53;;;;;;;19.53;18.17;;;5.90;99.90;;;;;;5028881;28;20551;-72
2022/11/28 04:32:22;;;;;;;20.10;18.80;;;6.00;99.90;;;;;;5030614;28;20467;-73
2022/11/28 04:34:53;;;;;;;20.20;18.80;;;6.10;99.90;;;;;;5033016;28;20451;-73
2022/11/28 04:37:22;;;;;;;19.50;18.40;;;6.00;99.90;;;;;;5031046;28;20452;-73
2022/11/28 04:39:51;;;;;;;18.87;17.70;;;6.00;99.90;;;;;;5030339;28;20444;-73
2022/11/28 04:42:21;;;;;;;19.60;18.37;;;6.10;99.90;;;;;;5029218;28;20448;-73
2022/11/28 04:44:52;;;;;;;20.03;18.73;;;6.00;99.90;;;;;;5029129;28;20484;-72
2022/11/28 04:47:19;;;;;;;19.63;18.40;;;6.00;99.90;;;;;;5028573;28;20453;-71
2022/11/28 04:49:46;;;;;;;19.53;18.13;;;5.90;99.90;;;;;;5028645;28;20472;-73
2022/11/28 04:52:16;;;;;;;19.53;18.13;;;5.90;99.90;;;;;;5028541;28;20609;-73
2022/11/28 04:54:53;;;;;;;19.70;18.40;;;5.80;99.90;;;;;;5028523;28;20452;-73
2022/11/28 04:57:28;;;;;;;19.57;18.10;;;5.80;99.90;;;;;;5028173;28;20446;-72
2022/11/28 04:59:56;;;;;;;18.47;17.40;;;5.80;99.90;;;;;;5028028;28;20450;-73
2022/11/28 05:02:24;;;;;;;20.30;18.90;;;5.80;99.90;;;;;;5028152;28;20701;-72
2022/11/28 05:04:52;;;;;;;17.50;16.40;;;5.80;99.90;;;;;;5027886;28;20484;-72
2022/11/28 05:07:18;;;;;;;18.80;17.43;;;5.80;99.90;;;;;;5028203;28;20456;-73
2022/11/28 05:09:46;;;;;;;18.27;17.07;;;5.80;99.90;;;;;;5028538;28;20447;-73
2022/11/28 05:12:14;;;;;;;19.97;18.27;;;5.80;99.90;;;;;;5027877;28;20448;-73
2022/11/28 05:14:40;;;;;;;19.50;18.30;;;5.80;99.90;;;;;;5027963;28;20463;-72
2022/11/28 05:17:08;;;;;;;17.83;16.53;;;5.90;99.90;;;;;;5028146;28;20449;-72
2022/11/28 05:19:34;;;;;;;18.77;17.57;;;5.90;99.90;;;;;;5028261;28;20449;-73
2022/11/28 05:22:01;;;;;;;18.63;17.10;;;5.90;99.90;;;;;;5028573;28;20449;-73
2022/11/28 05:24:28;;;;;;;17.40;16.10;;;5.80;99.90;;;;;;5027860;28;20521;-73
2022/11/28 05:26:56;;;;;;;15.10;14.30;;;5.90;99.90;;;;;;5027877;28;20448;-72
2022/11/28 05:29:23;;;;;;;17.80;16.67;;;5.80;99.90;;;;;;5027916;28;20863;-72
2022/11/28 05:31:50;;;;;;;17.47;16.07;;;5.80;99.90;;;;;;5028141;28;20458;-72
2022/11/28 05:34:17;;;;;;;18.67;17.37;;;5.80;99.90;;;;;;5027950;28;20452;-72
2022/11/28 05:36:43;;;;;;;18.13;16.83;;;5.80;99.90;;;;;;5027916;28;20449;-73
2022/11/28 05:39:10;;;;;;;19.70;18.30;;;5.90;99.90;;;;;;5027612;28;20820;-73
2022/11/28 05:41:37;;;;;;;17.90;16.70;;;5.90;99.90;;;;;;5027554;28;20476;-71
2022/11/28 05:44:05;;;;;;;17.30;16.10;;;5.90;99.90;;;;;;5027638;28;20500;-72
2022/11/28 05:46:32;;;;;;;19.37;17.97;;;5.90;99.90;;;;;;5028182;28;20474;-72
2022/11/28 05:48:58;;;;;;;18.73;17.20;;;6.00;99.90;;;;;;5027261;28;20471;-72
2022/11/28 05:51:25;;;;;;;18.17;16.97;;;6.00;99.90;;;;;;5027453;28;20484;-74
2022/11/28 05:53:52;;;;;;;17.67;15.90;;;6.10;99.90;;;;;;5027671;28;20463;-73
2022/11/28 05:56:21;;;;;;;18.53;16.93;;;6.10;99.90;;;;;;5027251;28;20464;-72
2022/11/28 05:58:49;;;;;;;21.17;19.30;;;6.20;99.90;;;;;;5028027;28;20461;-72
2022/11/28 06:01:19;;;;;;;19.33;17.97;;;6.30;99.90;;;;;;5028401;28;20453;-72
2022/11/28 06:03:45;;;;;;;19.87;18.37;;;6.30;99.90;;;;;;5028129;28;20472;-72
2022/11/28 06:06:14;;;;;;;21.50;20.00;;;6.30;99.90;;;;;;5030469;28;20817;-72
2022/11/28 06:08:41;;;;;;;20.70;18.73;;;6.40;99.90;;;;;;5031537;28;20966;-72
2022/11/28 06:11:09;;;;;;;19.37;17.90;;;6.50;99.90;;;;;;5031134;28;20441;-72
2022/11/28 06:13:36;;;;;;;19.47;17.93;;;6.50;99.90;;;;;;5031376;28;20445;-72
2022/11/28 06:16:07;;;;;;;21.83;20.13;;;6.40;99.90;;;;;;5031212;28;20448;-71
2022/11/28 06:18:35;;;;;;;20.37;18.67;;;6.40;99.90;;;;;;5031196;28;20445;-72
2022/11/28 06:21:02;;;;;;;18.10;16.60;;;6.40;99.90;;;;;;5031146;28;20445;-74
2022/11/28 06:23:29;;;;;;;19.17;17.87;;;6.40;99.90;;;;;;5031185;28;20783;-72
2022/11/28 06:25:56;;;;;;;18.27;17.10;;;6.40;99.90;;;;;;5030514;28;20488;-72
2022/11/28 06:28:23;;;;;;;18.40;17.10;;;6.30;99.90;;;;;;5030746;28;20459;-72
2022/11/28 06:30:50;;;;;;;18.67;17.37;;;6.30;99.90;;;;;;5030814;28;20456;-72
2022/11/28 06:33:17;;;;;;;17.57;16.50;;;6.40;99.90;;;;;;5031329;28;20894;-73
2022/11/28 06:35:45;;;;;;;17.53;16.33;;;6.50;99.90;;;;;;5031234;28;20449;-73
2022/11/28 06:38:12;;;;;;;20.37;18.40;;;6.50;99.90;;;;;;5030963;28;20448;-73
2022/11/28 06:40:39;;;;;;;19.77;18.37;;;6.40;99.90;;;;;;5031075;28;20824;-72
2022/11/28 06:43:06;;;;;;;20.13;18.77;;;6.30;99.90;;;;;;5031040;28;20536;-73
2022/11/28 06:45:33;;;;;;;18.67;17.47;;;6.30;99.90;;;;;;5030891;28;20853;-72
2022/11/28 06:48:00;;;;;;;20.90;19.40;;;6.30;99.90;;;;;;5030997;28;20449;-73
2022/11/28 06:50:28;;;;;;;20.63;18.97;;;6.30;99.90;;;;;;5030611;28;20910;-73
2022/11/28 06:52:56;;;;;;;21.43;19.43;;;6.40;99.90;;;;;;5030924;28;20806;-72
2022/11/28 06:55:23;;;;;;;23.07;19.43;;;6.30;99.90;;;;;;5030857;28;20675;-73
2022/11/28 06:57:49;;;;;;;26.90;21.60;;;6.30;99.90;;;;;;5030648;28;20461;-73
2022/11/28 07:00:17;;;;;;;21.90;19.90;;;6.30;99.90;;;;;;5031042;28;20452;-73
2022/11/28 07:02:44;;;;;;;22.60;20.60;;;6.30;99.90;;;;;;5030851;28;20711;-74
2022/11/28 07:05:10;;;;;;;21.80;19.80;;;6.20;99.90;;;;;;5030577;28;20480;-72
2022/11/28 07:07:37;;;;;;;20.60;19.10;;;6.20;99.90;;;;;;5030687;28;20452;-73
2022/11/28 07:10:07;;;;;;;20.40;18.70;;;6.10;99.90;;;;;;5030748;28;20460;-73
2022/11/28 07:12:33;;;;;;;23.00;21.10;;;6.10;99.90;;;;;;5030727;28;20456;-74
2022/11/28 07:15:00;;;;;;;24.93;22.73;;;6.10;99.90;;;;;;5031258;28;20517;-75
2022/11/28 07:17:27;;;;;;;23.07;21.13;;;6.10;99.90;;;;;;5030867;28;20495;-75
2022/11/28 07:19:54;;;;;;;23.67;21.67;;;6.10;99.90;;;;;;5030368;28;20445;-75
2022/11/28 07:22:21;;;;;;;21.43;19.53;;;6.10;99.90;;;;;;5030545;28;20448;-76
2022/11/28 07:24:48;;;;;;;22.27;20.43;;;6.00;99.90;;;;;;5030972;28;20484;-75
2022/11/28 07:27:16;;;;;;;20.40;18.83;;;6.00;99.90;;;;;;5030719;28;20517;-71
2022/11/28 07:29:43;;;;;;;21.70;19.50;;;6.10;99.90;;;;;;5047377;28;20459;-73
2022/11/28 07:32:09;;;;;;;20.20;18.47;;;6.00;99.90;;;;;;5050479;28;20454;-72
2022/11/28 07:34:36;;;;;;;21.10;19.23;;;6.00;99.90;;;;;;5050346;28;20450;-73
2022/11/28 07:37:03;;;;;;;21.50;19.60;;;6.00;99.90;;;;;;5051001;28;20505;-72
2022/11/28 07:39:30;;;;;;;19.90;18.37;;;6.10;99.90;;;;;;5051070;28;20830;-73
2022/11/28 07:41:56;;;;;;;21.40;19.47;;;6.20;99.90;;;;;;5050676;28;20459;-73
2022/11/28 07:44:24;;;;;;;21.50;19.80;;;6.30;99.90;;;;;;5049995;28;20480;-73
2022/11/28 07:46:51;;;;;;;22.37;20.20;;;6.40;99.90;;;;;;5050077;28;20458;-72
2022/11/28 07:49:18;;;;;;;20.67;19.17;;;6.50;99.90;;;;;;5050178;28;20590;-72
2022/11/28 07:51:45;;;;;;;20.53;18.50;;;6.50;99.90;;;;;;5049887;28;20482;-73
2022/11/28 07:54:12;;;;;;;19.80;18.30;;;6.50;99.90;;;;;;5049992;28;20448;-73
2022/11/28 07:56:39;;;;;;;20.50;18.80;;;6.50;99.90;;;;;;5049827;28;20552;-73
2022/11/28 07:59:06;;;;;;;20.50;18.90;;;6.60;99.90;;;;;;5049793;28;20459;-73
2022/11/28 08:01:35;;;;;;;21.40;19.67;;;6.50;99.90;;;;;;5049712;28;20448;-72
2022/11/28 08:04:03;;;;;;;22.90;20.70;;;6.50;99.90;;;;;;5050136;28;20444;-73
2022/11/28 08:06:31;;;;;;;23.07;20.87;;;6.50;99.90;;;;;;5049941;28;20455;-74
2022/11/28 08:09:00;;;;;;;22.70;20.57;;;6.50;99.90;;;;;;5050022;28;20448;-73
2022/11/28 08:11:28;;;;;;;21.47;19.80;;;6.60;99.90;;;;;;5049944;28;20452;-73
2022/11/28 08:13:56;;;;;;;21.50;19.90;;;6.60;99.90;;;;;;5040742;28;20469;-74
2022/11/28 08:16:25;;;;;;;21.30;19.63;;;6.60;99.90;;;;;;5027329;28;20548;-73
2022/11/28 08:18:54;;;;;;;20.03;18.17;;;6.50;99.90;;;;;;5029357;28;20441;-73
2022/11/28 08:21:23;;;;;;;20.57;19.13;;;6.60;99.90;;;;;;5026588;28;20544;-72
2022/11/28 08:23:51;;;;;;;19.60;17.90;;;6.60;99.90;;;;;;5029299;28;20467;-71
2022/11/28 08:26:20;;;;;;;20.70;18.87;;;6.60;99.90;;;;;;5029509;28;20554;-74
2022/11/28 08:28:49;;;;;;;18.83;17.30;;;6.60;99.90;;;;;;5029186;28;20953;-73
2022/11/28 08:31:18;;;;;;;20.00;18.30;;;6.70;99.90;;;;;;5029679;28;20461;-75
2022/11/28 08:33:47;;;;;;;20.00;18.60;;;6.80;99.90;;;;;;5029733;28;20976;-72
2022/11/28 08:36:17;;;;;;;17.77;16.37;;;6.90;99.90;;;;;;5029544;28;20441;-70
2022/11/28 08:38:45;;;;;;;17.83;16.53;;;7.00;99.90;;;;;;5029619;28;20457;-74
2022/11/28 08:41:15;;;;;;;18.53;16.93;;;7.00;99.90;;;;;;5029309;28;20514;-71
2022/11/28 08:43:42;;;;;;;18.37;16.77;;;7.10;99.90;;;;;;5027733;28;20941;-70
2022/11/28 08:46:11;;;;;;;17.17;16.07;;;7.10;99.90;;;;;;5027836;28;20554;-70
2022/11/28 08:48:39;;;;;;;18.00;16.60;;;7.10;99.90;;;;;;5029346;28;20467;-71
2022/11/28 08:51:08;;;;;;;18.80;17.17;;;7.20;99.90;;;;;;5029354;28;20893;-71
2022/11/28 08:53:36;;;;;;;20.20;18.50;;;7.30;99.90;;;;;;5029738;28;20457;-70
2022/11/28 08:56:03;;;;;;;20.00;18.60;;;7.30;99.90;;;;;;5029830;28;20461;-71
2022/11/28 08:58:30;;;;;;;31.90;20.70;;;7.30;99.90;;;;;;5030043;28;20449;-71
2022/11/28 09:00:56;;;;;;;23.57;21.20;;;7.40;99.90;;;;;;5029601;28;20457;-71
2022/11/28 09:03:23;;;;;;;23.83;21.50;;;7.40;99.90;;;;;;5029592;28;20449;-71
2022/11/28 09:05:50;;;;;;;23.53;21.43;;;7.40;99.90;;;;;;5029268;28;20493;-71
2022/11/28 09:08:20;;;;;;;21.47;19.60;;;7.40;99.90;;;;;;5029651;28;20552;-71
2022/11/28 09:10:48;;;;;;;17.10;15.90;;;7.40;99.90;;;;;;5029293;28;20460;-71
2022/11/28 09:13:15;;;;;;;19.17;17.53;;;7.30;99.90;;;;;;5029521;28;20472;-71
2022/11/28 09:15:43;;;;;;;19.90;18.37;;;7.30;99.90;;;;;;5029825;28;20463;-71
2022/11/28 09:18:12;;;;;;;20.07;18.27;;;7.40;99.90;;;;;;5029459;28;20461;-72
2022/11/28 09:20:39;;;;;;;18.67;17.03;;;7.40;99.90;;;;;;5026634;28;20457;-71
2022/11/28 09:23:06;;;;;;;18.97;17.07;;;7.50;99.90;;;;;;5027499;28;20449;-70
2022/11/28 09:25:34;;;;;;;19.87;18.00;;;7.50;99.90;;;;;;5027293;28;20481;-70
2022/11/28 09:28:02;;;;;;;21.00;18.90;;;7.60;99.90;;;;;;5029470;28;20452;-71
2022/11/28 09:30:29;;;;;;;18.73;16.97;;;7.60;99.90;;;;;;5029548;28;20556;-71
2022/11/28 09:32:56;;;;;;;18.07;16.43;;;7.70;99.90;;;;;;5048935;28;20444;-71
2022/11/28 09:35:23;;;;;;;19.93;18.10;;;7.70;99.90;;;;;;5049029;28;21008;-69
2022/11/28 09:37:50;;;;;;;20.03;18.23;;;7.70;99.90;;;;;;5049011;28;20451;-71
2022/11/28 09:40:18;;;;;;;18.80;17.30;;;7.70;99.90;;;;;;5050140;28;20450;-71
2022/11/28 09:42:46;;;;;;;19.10;17.40;;;7.70;99.90;;;;;;5052920;28;20448;-71
2022/11/28 09:45:18;;;;;;;20.20;18.60;;;7.70;99.90;;;;;;5052753;28;20476;-71
2022/11/28 09:47:49;;;;;;;21.37;19.67;;;7.80;99.90;;;;;;5052908;28;20451;-71
2022/11/28 09:50:20;;;;;;;20.17;18.47;;;7.80;99.90;;;;;;5052268;28;20463;-71
2022/11/28 09:52:55;;;;;;;20.20;18.90;;;7.90;99.90;;;;;;5052423;28;20440;-70
2022/11/28 09:55:30;;;;;;;19.53;15.90;;;7.90;99.90;;;;;;5052290;28;20446;-70
2022/11/28 09:57:57;;;;;;;19.83;17.70;;;7.90;99.90;;;;;;5052399;28;20450;-71
2022/11/28 10:00:33;;;;;;;19.77;16.90;;;7.90;99.90;;;;;;5052274;28;20458;-72
2022/11/28 10:03:28;;;;;;;18.87;17.30;;;8.00;99.90;;;;;;5052379;28;20447;-71
2022/11/28 10:06:04;;;;;;;17.87;16.33;;;8.00;99.90;;;;;;5052288;28;20480;-72
2022/11/28 10:08:42;;;;;;;19.40;17.67;;;8.00;99.90;;;;;;5052692;28;20450;-71
2022/11/28 10:11:21;;;;;;;19.70;17.60;;;8.20;99.90;;;;;;5051957;28;20444;-71
2022/11/28 10:13:56;;;;;;;19.13;17.10;;;8.30;99.90;;;;;;5052183;28;20448;-71
2022/11/28 10:16:32;;;;;;;17.47;16.27;;;8.10;99.90;;;;;;5052188;28;20668;-71
2022/11/28 10:19:03;;;;;;;18.70;17.03;;;7.90;99.90;;;;;;5052449;28;20444;-70
2022/11/28 10:21:36;;;;;;;17.23;15.70;;;8.00;99.90;;;;;;5052406;28;20452;-72
2022/11/28 10:24:07;;;;;;;20.07;18.17;;;8.00;99.90;;;;;;5052058;28;20801;-72
2022/11/28 10:26:37;;;;;;;19.10;17.50;;;8.00;99.90;;;;;;5051857;28;20479;-70
2022/11/28 10:29:13;;;;;;;17.93;16.63;;;8.10;99.90;;;;;;5052059;28;20539;-71
2022/11/28 10:31:44;;;;;;;18.07;16.87;;;8.10;99.90;;;;;;5052253;28;20451;-72
2022/11/28 10:34:19;;;;;;;17.90;16.53;;;8.20;99.90;;;;;;5051595;28;20555;-71
2022/11/28 10:36:55;;;;;;;18.13;16.73;;;8.30;99.90;;;;;;5052216;28;20440;-71
2022/11/28 10:39:22;;;;;;;17.77;16.17;;;8.30;99.90;;;;;;5051533;28;20448;-71
2022/11/28 10:45:08;;;;;;;18.47;16.53;;;8.20;99.90;;;;;;5085582;28;20768;-71
2022/11/28 10:48:00;;;;;;;19.13;17.23;;;8.30;99.90;;;;;;5087092;28;20807;-72
2022/11/28 10:50:38;;;;;;;19.67;17.83;;;8.30;99.90;;;;;;5086865;28;20458;-71
2022/11/28 10:53:12;;;;;;;19.07;17.53;;;8.30;99.90;;;;;;5087138;28;20438;-73
2022/11/28 10:55:47;;;;;;;19.07;17.57;;;8.40;99.90;;;;;;5086823;28;20465;-72
2022/11/28 10:58:21;;;;;;;20.23;18.33;;;8.50;99.90;;;;;;5087337;28;20446;-71
2022/11/28 11:00:53;;;;;;;20.07;18.43;;;8.50;99.90;;;;;;5087120;28;20454;-71
2022/11/28 11:03:25;;;;;;;21.80;19.70;;;8.50;99.90;;;;;;5087574;28;20474;-71
2022/11/28 11:05:52;;;;;;;19.93;18.50;;;8.60;99.90;;;;;;5086710;28;20560;-70
2022/11/28 11:08:21;;;;;;;18.90;17.00;;;8.60;99.90;;;;;;5087056;28;20472;-71
2022/11/28 11:10:50;;;;;;;21.33;19.53;;;8.60;99.90;;;;;;5082526;28;20444;-72
2022/11/28 11:13:19;;;;;;;18.93;17.20;;;8.60;99.90;;;;;;5076874;28;20434;-71
2022/11/28 11:15:48;;;;;;;20.47;18.77;;;8.60;99.90;;;;;;5071679;28;20443;-71
2022/11/28 11:18:26;;;;;;;19.47;17.80;;;8.50;99.90;;;;;;5066529;28;20454;-70
2022/11/28 11:21:08;;;;;;;19.37;17.70;;;8.60;99.90;;;;;;5065986;28;20554;-72
2022/11/28 11:23:34;;;;;;;18.67;16.97;;;8.60;99.90;;;;;;5065776;28;20479;-71
2022/11/28 11:26:02;;;;;;;18.70;17.30;;;8.70;99.90;;;;;;5066240;28;20470;-72
2022/11/28 11:28:43;;;;;;;21.17;19.30;;;8.60;99.90;;;;;;5066029;28;20451;-71
2022/11/28 11:31:21;;;;;;;18.87;17.47;;;8.50;99.90;;;;;;5065645;28;20586;-72
2022/11/28 11:34:15;;;;;;;20.23;18.80;;;8.40;99.90;;;;;;5064875;28;20439;-71
2022/11/28 11:36:42;;;;;;;19.40;17.90;;;8.50;99.90;;;;;;5052780;28;20513;-73
2022/11/28 11:39:20;;;;;;;19.37;18.03;;;8.50;99.90;;;;;;5064207;28;20439;-72
2022/11/28 11:41:49;;;;;;;21.73;20.13;;;8.40;99.90;;;;;;5065914;28;20464;-73
2022/11/28 11:44:34;;;;;;;21.50;20.10;;;8.30;99.90;;;;;;5065841;28;20849;-73
2022/11/28 11:47:03;;;;;;;24.17;22.17;;;8.30;99.90;;;;;;5066011;28;20454;-72
2022/11/28 11:49:34;;;;;;;24.33;22.40;;;8.30;99.90;;;;;;5065943;28;20479;-73
2022/11/28 11:52:04;;;;;;;23.27;21.67;;;8.30;99.90;;;;;;5065983;28;20944;-73
2022/11/28 11:54:31;;;;;;;22.77;21.27;;;8.40;99.90;;;;;;5062115;28;20490;-72
2022/11/28 11:56:59;;;;;;;23.60;21.80;;;8.50;99.90;;;;;;5052953;28;20439;-73
2022/11/28 11:59:31;;;;;;;25.23;23.03;;;8.50;99.90;;;;;;5052343;28;20443;-73
2022/11/28 12:02:01;;;;;;;26.93;24.43;;;8.50;99.90;;;;;;5052696;28;20436;-73
2022/11/28 12:04:34;;;;;;;25.10;22.67;;;8.40;99.90;;;;;;5052459;28;20491;-71
2022/11/28 12:07:05;;;;;;;26.30;23.00;;;8.40;99.90;;;;;;5060974;28;20455;-71
2022/11/28 12:09:38;;;;;;;26.43;24.03;;;8.40;99.90;;;;;;5063666;28;20463;-72
2022/11/28 12:12:12;;;;;;;25.37;22.87;;;8.30;99.90;;;;;;5072348;28;20458;-72
2022/11/28 12:14:39;;;;;;;26.83;24.83;;;8.30;99.90;;;;;;5072109;28;20443;-71
2022/11/28 12:17:31;;;;;;;29.27;26.67;;;8.20;99.90;;;;;;5072383;28;20469;-72
2022/11/28 12:20:12;;;;;;;27.57;25.10;;;8.20;99.90;;;;;;5072274;28;20454;-73
2022/11/28 12:22:48;;;;;;;27.13;25.00;;;8.30;99.90;;;;;;5072242;28;20443;-72
2022/11/28 12:25:21;;;;;;;27.03;25.13;;;8.30;99.90;;;;;;5072412;28;20442;-72
2022/11/28 12:28:01;;;;;;;26.27;24.43;;;8.50;99.90;;;;;;5072159;28;20465;-72
2022/11/28 12:30:46;;;;;;;24.57;22.87;;;8.60;99.90;;;;;;5072086;28;20439;-71
2022/11/28 12:33:25;;;;;;;25.43;23.63;;;8.70;99.90;;;;;;5071960;28;20435;-72
2022/11/28 12:36:05;;;;;;;24.63;22.83;;;8.70;99.90;;;;;;5069954;28;20498;-72
2022/11/28 12:38:54;;;;;;;23.17;21.40;;;8.60;99.90;;;;;;5071944;28;20439;-71
2022/11/28 12:41:40;;;;;;;22.90;21.30;;;8.70;99.90;;;;;;5071650;28;20444;-70
2022/11/28 12:44:19;;;;;;;21.37;19.77;;;8.70;99.90;;;;;;5071192;28;20490;-70
2022/11/28 12:46:50;;;;;;;20.93;19.33;;;8.70;99.90;;;;;;5071807;28;20444;-71
2022/11/28 12:49:24;;;;;;;20.20;18.60;;;8.80;99.90;;;;;;5071965;28;20822;-71
2022/11/28 12:52:02;;;;;;;20.70;19.03;;;8.90;99.90;;;;;;5071866;28;20921;-70
2022/11/28 12:54:41;;;;;;;22.33;20.33;;;9.00;99.90;;;;;;5071924;28;20481;-70
2022/11/28 12:57:17;;;;;;;23.30;21.20;;;9.10;99.90;;;;;;5071879;28;20453;-70
2022/11/28 12:59:53;;;;;;;24.33;22.27;;;9.20;99.90;;;;;;5071883;28;20449;-70
2022/11/28 13:02:32;;;;;;;21.27;19.47;;;9.20;99.90;;;;;;5071611;28;20451;-71
2022/11/28 13:05:19;;;;;;;21.40;19.63;;;9.20;99.90;;;;;;5071659;28;20478;-70
2022/11/28 13:08:26;;;;;;;23.90;22.00;;;9.10;99.90;;;;;;5070924;28;20458;-69
2022/11/28 13:11:05;;;;;;;23.10;21.40;;;9.10;99.90;;;;;;5001812;28;20439;-69
2022/11/28 13:13:38;;;;;;;30.43;28.10;;;9.10;99.90;;;;;;5055197;28;20459;-70
2022/11/28 13:16:15;;;;;;;30.73;27.83;;;9.10;99.90;;;;;;5054507;28;20443;-70
2022/11/28 13:18:47;;;;;;;28.17;25.87;;;9.20;99.90;;;;;;5071168;28;20443;-70
2022/11/28 13:21:22;;;;;;;25.73;23.57;;;9.20;99.90;;;;;;5071482;28;20820;-71
2022/11/28 13:23:56;;;;;;;22.07;20.03;;;9.40;99.90;;;;;;5071299;28;20478;-72
2022/11/28 13:26:37;;;;;;;21.87;20.17;;;9.30;99.90;;;;;;5071339;28;20892;-71
2022/11/28 13:29:15;;;;;;;20.57;19.13;;;9.40;99.90;;;;;;5071092;28;20439;-69
2022/11/28 13:31:48;;;;;;;20.50;19.10;;;9.50;99.90;;;;;;5071090;28;20459;-72
2022/11/28 13:34:17;;;;;;;20.23;18.83;;;9.50;99.90;;;;;;5071069;28;20450;-71
2022/11/28 13:36:52;;;;;;;23.50;21.40;;;9.50;99.90;;;;;;5071367;28;20450;-72
2022/11/28 13:39:30;;;;;;;21.80;20.10;;;9.50;99.90;;;;;;5070909;28;20535;-70
2022/11/28 13:42:16;;;;;;;21.50;19.90;;;9.50;99.90;;;;;;5071124;28;20447;-71
2022/11/28 13:44:53;;;;;;;22.63;20.60;;;9.50;99.90;;;;;;5070981;28;20479;-72
2022/11/28 13:47:33;;;;;;;22.20;20.47;;;9.60;99.90;;;;;;5070956;28;20443;-71
2022/11/28 13:50:32;;;;;;;24.47;22.23;;;9.70;99.90;;;;;;5070941;28;20984;-73
2022/11/28 13:53:00;;;;;;;26.37;24.17;;;9.70;99.90;;;;;;5071255;28;20848;-71
2022/11/28 13:55:43;;;;;;;30.43;26.67;;;9.70;99.90;;;;;;5070818;28;20440;-70
2022/11/28 13:58:19;;;;;;;28.47;26.07;;;9.70;99.90;;;;;;5071007;28;20505;-70
2022/11/28 14:01:03;;;;;;;28.20;25.97;;;9.60;99.90;;;;;;5071032;28;20932;-70
2022/11/28 14:03:32;;;;;;;28.87;25.83;;;9.60;99.90;;;;;;5069342;28;20457;-70
2022/11/28 14:06:02;;;;;;;25.70;23.70;;;9.70;99.90;;;;;;5070399;28;20932;-71
2022/11/28 14:08:33;;;;;;;26.63;24.60;;;9.70;99.90;;;;;;5070814;28;20447;-70
2022/11/28 14:11:22;;;;;;;25.27;23.07;;;9.60;99.90;;;;;;5071281;28;20443;-70
2022/11/28 14:14:07;;;;;;;24.07;21.97;;;9.60;99.90;;;;;;5070863;28;20952;-70
2022/11/28 14:16:46;;;;;;;23.20;21.33;;;9.70;99.90;;;;;;5070673;28;20447;-69
2022/11/28 14:19:23;;;;;;;22.50;20.73;;;9.70;99.90;;;;;;5070448;28;20451;-71